Siasconset, Massachusetts
Current Conditions -  °F | °C
As of 12:53 PM on Thursday 30 Oct 2014 (Local Time) from KACK Reporting Station
Clear Clear  
Wind Chill: 57°   Ceiling: Unl
Heat Index: 57°   Visibility: 10mi
Dew Point: 40°   Wind: 9mph
Humidity: 53%   Direction: 310°NW
Pressure: 29.93"   Gusts: NA
Location:  41.26°N, 69.97°W
Report Text: KACK 301653Z 31008KT 10SM CLR 14/04 A2993 RMK AO2 SLP133 T01390044 PNO $
Loading
Personal Weather Stations






























Interactive Weather Map
Tropical Storm Tracking
New forecast layout! Learn more

10-Day Weather Forecast

Advertisements
Track Severe Weather on mobile